sensor_id;sensor_type;location;lat;lon;timestamp;temperature;humidity
5134;DHT22;2585;48.696;10.066;2023-06-22T00:02:22;16.80;93.70
5134;DHT22;2585;48.696;10.066;2023-06-22T00:04:49;16.80;93.70
5134;DHT22;2585;48.696;10.066;2023-06-22T00:07:16;16.80;93.70
5134;DHT22;2585;48.696;10.066;2023-06-22T00:09:42;16.70;93.60
5134;DHT22;2585;48.696;10.066;2023-06-22T00:12:09;16.70;93.70
5134;DHT22;2585;48.696;10.066;2023-06-22T00:14:36;16.70;93.70
5134;DHT22;2585;48.696;10.066;2023-06-22T00:17:03;16.70;93.70
5134;DHT22;2585;48.696;10.066;2023-06-22T00:19:30;16.60;93.60
5134;DHT22;2585;48.696;10.066;2023-06-22T00:21:56;16.60;93.60
5134;DHT22;2585;48.696;10.066;2023-06-22T00:24:27;16.60;93.60
5134;DHT22;2585;48.696;10.066;2023-06-22T00:26:53;16.60;93.60
5134;DHT22;2585;48.696;10.066;2023-06-22T00:29:20;16.60;93.60
5134;DHT22;2585;48.696;10.066;2023-06-22T00:31:51;16.60;93.60
5134;DHT22;2585;48.696;10.066;2023-06-22T00:34:17;16.60;93.60
5134;DHT22;2585;48.696;10.066;2023-06-22T00:36:44;16.60;93.60
5134;DHT22;2585;48.696;10.066;2023-06-22T00:39:11;16.60;93.70
5134;DHT22;2585;48.696;10.066;2023-06-22T00:41:38;16.50;93.60
5134;DHT22;2585;48.696;10.066;2023-06-22T00:44:05;16.50;93.60
5134;DHT22;2585;48.696;10.066;2023-06-22T00:46:33;16.50;93.60
5134;DHT22;2585;48.696;10.066;2023-06-22T00:49:00;16.50;93.60
5134;DHT22;2585;48.696;10.066;2023-06-22T00:51:27;16.40;93.60
5134;DHT22;2585;48.696;10.066;2023-06-22T00:53:54;16.40;93.60
5134;DHT22;2585;48.696;10.066;2023-06-22T00:56:22;16.40;93.60
5134;DHT22;2585;48.696;10.066;2023-06-22T00:58:52;16.30;93.60
5134;DHT22;2585;48.696;10.066;2023-06-22T01:01:20;16.30;93.60
5134;DHT22;2585;48.696;10.066;2023-06-22T01:03:50;16.20;93.60
5134;DHT22;2585;48.696;10.066;2023-06-22T01:06:28;16.20;93.60
5134;DHT22;2585;48.696;10.066;2023-06-22T01:09:20;16.10;93.50
5134;DHT22;2585;48.696;10.066;2023-06-22T01:11:53;16.10;93.50
5134;DHT22;2585;48.696;10.066;2023-06-22T01:14:27;16.10;93.50
5134;DHT22;2585;48.696;10.066;2023-06-22T01:16:59;16.10;93.50
5134;DHT22;2585;48.696;10.066;2023-06-22T01:22:03;16.00;93.50
5134;DHT22;2585;48.696;10.066;2023-06-22T01:25:04;16.00;93.50
5134;DHT22;2585;48.696;10.066;2023-06-22T01:27:46;16.00;93.50
5134;DHT22;2585;48.696;10.066;2023-06-22T01:30:16;16.00;93.50
5134;DHT22;2585;48.696;10.066;2023-06-22T01:32:46;15.90;93.50
5134;DHT22;2585;48.696;10.066;2023-06-22T01:35:14;15.90;93.50
5134;DHT22;2585;48.696;10.066;2023-06-22T01:37:42;15.80;93.50
5134;DHT22;2585;48.696;10.066;2023-06-22T01:40:09;15.80;93.50
5134;DHT22;2585;48.696;10.066;2023-06-22T01:42:37;15.80;93.50
5134;DHT22;2585;48.696;10.066;2023-06-22T01:45:05;15.80;93.50
5134;DHT22;2585;48.696;10.066;2023-06-22T01:47:33;15.80;93.50
5134;DHT22;2585;48.696;10.066;2023-06-22T01:50:01;15.80;93.50
5134;DHT22;2585;48.696;10.066;2023-06-22T01:52:28;15.80;93.50
5134;DHT22;2585;48.696;10.066;2023-06-22T01:54:54;15.80;93.50
5134;DHT22;2585;48.696;10.066;2023-06-22T01:57:21;15.70;93.40
5134;DHT22;2585;48.696;10.066;2023-06-22T02:00:01;15.70;93.40
5134;DHT22;2585;48.696;10.066;2023-06-22T02:02:36;15.60;93.40
5134;DHT22;2585;48.696;10.066;2023-06-22T02:05:07;15.60;93.40
5134;DHT22;2585;48.696;10.066;2023-06-22T02:07:43;15.60;93.40
5134;DHT22;2585;48.696;10.066;2023-06-22T02:10:14;15.50;93.40
5134;DHT22;2585;48.696;10.066;2023-06-22T02:12:43;15.50;93.40
5134;DHT22;2585;48.696;10.066;2023-06-22T02:15:11;15.50;93.40
5134;DHT22;2585;48.696;10.066;2023-06-22T02:17:39;15.40;93.40
5134;DHT22;2585;48.696;10.066;2023-06-22T02:20:13;15.40;93.40
5134;DHT22;2585;48.696;10.066;2023-06-22T02:22:40;15.40;93.40
5134;DHT22;2585;48.696;10.066;2023-06-22T02:25:07;15.40;93.40
5134;DHT22;2585;48.696;10.066;2023-06-22T02:27:34;15.40;93.40
5134;DHT22;2585;48.696;10.066;2023-06-22T02:30:01;15.40;93.40
5134;DHT22;2585;48.696;10.066;2023-06-22T02:32:28;15.30;93.30
5134;DHT22;2585;48.696;10.066;2023-06-22T02:34:55;15.40;93.40
5134;DHT22;2585;48.696;10.066;2023-06-22T02:37:21;15.40;93.40
5134;DHT22;2585;48.696;10.066;2023-06-22T02:39:51;15.40;93.40
5134;DHT22;2585;48.696;10.066;2023-06-22T02:42:18;15.30;93.40
5134;DHT22;2585;48.696;10.066;2023-06-22T02:44:47;15.30;93.40
5134;DHT22;2585;48.696;10.066;2023-06-22T02:47:14;15.30;93.40
5134;DHT22;2585;48.696;10.066;2023-06-22T02:49:41;15.30;93.40
5134;DHT22;2585;48.696;10.066;2023-06-22T02:52:08;15.20;93.30
5134;DHT22;2585;48.696;10.066;2023-06-22T02:54:35;15.20;93.30
5134;DHT22;2585;48.696;10.066;2023-06-22T02:57:02;15.20;93.30
5134;DHT22;2585;48.696;10.066;2023-06-22T02:59:29;15.10;93.30
5134;DHT22;2585;48.696;10.066;2023-06-22T03:01:59;15.10;93.30
5134;DHT22;2585;48.696;10.066;2023-06-22T03:04:27;15.10;93.30
5134;DHT22;2585;48.696;10.066;2023-06-22T03:06:54;15.10;93.30
5134;DHT22;2585;48.696;10.066;2023-06-22T03:09:20;15.10;93.30
5134;DHT22;2585;48.696;10.066;2023-06-22T03:11:47;15.10;93.30
5134;DHT22;2585;48.696;10.066;2023-06-22T03:14:14;15.10;93.30
5134;DHT22;2585;48.696;10.066;2023-06-22T03:16:41;15.10;93.30
5134;DHT22;2585;48.696;10.066;2023-06-22T03:19:07;15.10;93.30
5134;DHT22;2585;48.696;10.066;2023-06-22T03:21:34;15.10;93.30
5134;DHT22;2585;48.696;10.066;2023-06-22T03:24:01;15.10;93.30
5134;DHT22;2585;48.696;10.066;2023-06-22T03:26:28;15.10;93.30
5134;DHT22;2585;48.696;10.066;2023-06-22T03:28:56;15.10;93.30
5134;DHT22;2585;48.696;10.066;2023-06-22T03:31:23;15.10;93.30
5134;DHT22;2585;48.696;10.066;2023-06-22T03:33:50;15.00;93.30
5134;DHT22;2585;48.696;10.066;2023-06-22T03:36:18;15.00;93.30
5134;DHT22;2585;48.696;10.066;2023-06-22T03:38:50;15.10;93.30
5134;DHT22;2585;48.696;10.066;2023-06-22T03:41:17;15.00;93.30
5134;DHT22;2585;48.696;10.066;2023-06-22T03:43:43;15.00;93.30
5134;DHT22;2585;48.696;10.066;2023-06-22T03:46:10;15.10;93.30
5134;DHT22;2585;48.696;10.066;2023-06-22T03:48:38;15.00;93.30
5134;DHT22;2585;48.696;10.066;2023-06-22T03:51:05;15.10;93.30
5134;DHT22;2585;48.696;10.066;2023-06-22T03:53:32;15.10;93.30
5134;DHT22;2585;48.696;10.066;2023-06-22T03:55:59;15.10;93.30
5134;DHT22;2585;48.696;10.066;2023-06-22T03:58:26;15.10;93.30
5134;DHT22;2585;48.696;10.066;2023-06-22T04:00:53;15.10;93.30
5134;DHT22;2585;48.696;10.066;2023-06-22T04:03:20;15.10;93.30
5134;DHT22;2585;48.696;10.066;2023-06-22T04:05:47;15.10;93.30
5134;DHT22;2585;48.696;10.066;2023-06-22T04:08:15;15.10;93.30
5134;DHT22;2585;48.696;10.066;2023-06-22T04:10:42;15.10;93.30
5134;DHT22;2585;48.696;10.066;2023-06-22T04:13:09;15.10;93.30
5134;DHT22;2585;48.696;10.066;2023-06-22T04:15:36;15.10;93.30
5134;DHT22;2585;48.696;10.066;2023-06-22T04:18:03;15.20;93.40
5134;DHT22;2585;48.696;10.066;2023-06-22T04:20:31;15.10;93.30
5134;DHT22;2585;48.696;10.066;2023-06-22T04:22:59;15.20;93.40
5134;DHT22;2585;48.696;10.066;2023-06-22T04:25:26;15.20;93.40
5134;DHT22;2585;48.696;10.066;2023-06-22T04:27:52;15.20;93.40
5134;DHT22;2585;48.696;10.066;2023-06-22T04:30:19;15.30;93.40
5134;DHT22;2585;48.696;10.066;2023-06-22T04:32:46;15.30;93.40
5134;DHT22;2585;48.696;10.066;2023-06-22T04:35:23;15.30;93.40
5134;DHT22;2585;48.696;10.066;2023-06-22T04:37:50;15.40;93.40
5134;DHT22;2585;48.696;10.066;2023-06-22T04:40:22;15.40;93.40
5134;DHT22;2585;48.696;10.066;2023-06-22T04:42:49;15.50;93.40
5134;DHT22;2585;48.696;10.066;2023-06-22T04:45:20;15.60;93.50
5134;DHT22;2585;48.696;10.066;2023-06-22T04:47:47;15.70;93.50
5134;DHT22;2585;48.696;10.066;2023-06-22T04:50:15;15.70;93.50
5134;DHT22;2585;48.696;10.066;2023-06-22T04:52:42;15.90;93.60
5134;DHT22;2585;48.696;10.066;2023-06-22T04:55:09;16.20;93.60
5134;DHT22;2585;48.696;10.066;2023-06-22T04:57:36;16.30;93.70
5134;DHT22;2585;48.696;10.066;2023-06-22T05:00:06;16.40;93.70
5134;DHT22;2585;48.696;10.066;2023-06-22T05:02:39;16.50;93.70
5134;DHT22;2585;48.696;10.066;2023-06-22T05:05:07;16.50;93.70
5134;DHT22;2585;48.696;10.066;2023-06-22T05:07:35;16.60;93.70
5134;DHT22;2585;48.696;10.066;2023-06-22T05:10:02;16.80;93.80
5134;DHT22;2585;48.696;10.066;2023-06-22T05:12:30;16.90;93.80
5134;DHT22;2585;48.696;10.066;2023-06-22T05:14:57;17.00;93.90
5134;DHT22;2585;48.696;10.066;2023-06-22T05:17:24;17.20;93.90
5134;DHT22;2585;48.696;10.066;2023-06-22T05:19:51;17.50;94.00
5134;DHT22;2585;48.696;10.066;2023-06-22T05:22:19;17.60;94.00
5134;DHT22;2585;48.696;10.066;2023-06-22T05:24:46;17.80;94.00
5134;DHT22;2585;48.696;10.066;2023-06-22T05:27:13;18.00;94.10
5134;DHT22;2585;48.696;10.066;2023-06-22T05:29:41;18.10;94.10
5134;DHT22;2585;48.696;10.066;2023-06-22T05:32:09;18.20;94.10
5134;DHT22;2585;48.696;10.066;2023-06-22T05:34:36;18.30;94.10
5134;DHT22;2585;48.696;10.066;2023-06-22T05:37:03;18.50;94.20
5134;DHT22;2585;48.696;10.066;2023-06-22T05:39:30;18.50;94.10
5134;DHT22;2585;48.696;10.066;2023-06-22T05:41:57;18.60;94.20
5134;DHT22;2585;48.696;10.066;2023-06-22T05:44:24;18.70;94.20
5134;DHT22;2585;48.696;10.066;2023-06-22T05:46:51;18.80;94.20
5134;DHT22;2585;48.696;10.066;2023-06-22T05:49:17;18.90;94.20
5134;DHT22;2585;48.696;10.066;2023-06-22T05:51:44;19.00;94.20
5134;DHT22;2585;48.696;10.066;2023-06-22T05:54:11;19.10;94.20
5134;DHT22;2585;48.696;10.066;2023-06-22T05:56:40;19.20;94.20
5134;DHT22;2585;48.696;10.066;2023-06-22T05:59:07;19.50;94.30
5134;DHT22;2585;48.696;10.066;2023-06-22T06:01:33;19.70;94.30
5134;DHT22;2585;48.696;10.066;2023-06-22T06:04:03;19.90;94.30
5134;DHT22;2585;48.696;10.066;2023-06-22T06:06:36;20.00;94.40
5134;DHT22;2585;48.696;10.066;2023-06-22T06:09:04;20.20;94.30
5134;DHT22;2585;48.696;10.066;2023-06-22T06:11:31;20.30;94.20
5134;DHT22;2585;48.696;10.066;2023-06-22T06:13:58;20.50;94.20
5134;DHT22;2585;48.696;10.066;2023-06-22T06:16:25;20.70;94.00
5134;DHT22;2585;48.696;10.066;2023-06-22T06:18:52;20.70;93.80
5134;DHT22;2585;48.696;10.066;2023-06-22T06:21:21;20.90;93.70
5134;DHT22;2585;48.696;10.066;2023-06-22T06:23:48;20.80;93.50
5134;DHT22;2585;48.696;10.066;2023-06-22T06:26:15;20.70;93.50
5134;DHT22;2585;48.696;10.066;2023-06-22T06:28:43;20.90;93.20
5134;DHT22;2585;48.696;10.066;2023-06-22T06:31:10;21.20;91.30
5134;DHT22;2585;48.696;10.066;2023-06-22T06:33:39;21.40;90.00
5134;DHT22;2585;48.696;10.066;2023-06-22T06:36:05;21.70;86.50
5134;DHT22;2585;48.696;10.066;2023-06-22T06:38:35;21.90;79.70
5134;DHT22;2585;48.696;10.066;2023-06-22T06:41:01;22.20;65.50
5134;DHT22;2585;48.696;10.066;2023-06-22T06:43:28;22.40;55.10
5134;DHT22;2585;48.696;10.066;2023-06-22T06:45:55;22.50;1.00
5134;DHT22;2585;48.696;10.066;2023-06-22T06:48:22;22.60;89.00
5134;DHT22;2585;48.696;10.066;2023-06-22T06:50:49;22.80;89.90
5134;DHT22;2585;48.696;10.066;2023-06-22T06:53:16;23.00;60.40
5134;DHT22;2585;48.696;10.066;2023-06-22T06:55:43;23.10;60.90
5134;DHT22;2585;48.696;10.066;2023-06-22T06:58:12;23.30;1.00
5134;DHT22;2585;48.696;10.066;2023-06-22T07:00:39;23.40;1.00
5134;DHT22;2585;48.696;10.066;2023-06-22T07:03:06;23.40;1.00
5134;DHT22;2585;48.696;10.066;2023-06-22T07:05:34;23.50;76.30
5134;DHT22;2585;48.696;10.066;2023-06-22T07:08:02;23.70;39.70
5134;DHT22;2585;48.696;10.066;2023-06-22T07:10:29;24.00;1.00
5134;DHT22;2585;48.696;10.066;2023-06-22T07:12:56;24.20;78.30
5134;DHT22;2585;48.696;10.066;2023-06-22T07:15:24;24.40;1.00
5134;DHT22;2585;48.696;10.066;2023-06-22T07:17:51;24.60;1.00
5134;DHT22;2585;48.696;10.066;2023-06-22T07:20:17;25.00;1.00
5134;DHT22;2585;48.696;10.066;2023-06-22T07:22:46;25.20;18.30
5134;DHT22;2585;48.696;10.066;2023-06-22T07:25:13;25.20;1.00
5134;DHT22;2585;48.696;10.066;2023-06-22T07:27:57;25.40;1.00
5134;DHT22;2585;48.696;10.066;2023-06-22T07:30:25;25.70;94.00
5134;DHT22;2585;48.696;10.066;2023-06-22T07:32:51;25.90;89.00
5134;DHT22;2585;48.696;10.066;2023-06-22T07:35:18;26.20;40.70
5134;DHT22;2585;48.696;10.066;2023-06-22T07:37:45;26.20;16.10
5134;DHT22;2585;48.696;10.066;2023-06-22T07:40:12;26.20;1.00
5134;DHT22;2585;48.696;10.066;2023-06-22T07:42:39;26.30;1.00
5134;DHT22;2585;48.696;10.066;2023-06-22T07:45:07;26.40;94.60
5134;DHT22;2585;48.696;10.066;2023-06-22T07:47:37;26.60;94.10
5134;DHT22;2585;48.696;10.066;2023-06-22T07:50:04;26.70;93.50
5134;DHT22;2585;48.696;10.066;2023-06-22T07:52:32;27.10;85.90
5134;DHT22;2585;48.696;10.066;2023-06-22T07:54:59;27.20;91.70
5134;DHT22;2585;48.696;10.066;2023-06-22T07:57:26;27.70;82.90
5134;DHT22;2585;48.696;10.066;2023-06-22T08:00:06;27.90;51.00
5134;DHT22;2585;48.696;10.066;2023-06-22T08:02:40;28.10;24.10
5134;DHT22;2585;48.696;10.066;2023-06-22T08:05:09;27.80;1.00
5134;DHT22;2585;48.696;10.066;2023-06-22T08:07:48;27.30;1.00
5134;DHT22;2585;48.696;10.066;2023-06-22T08:10:16;27.50;1.00
5134;DHT22;2585;48.696;10.066;2023-06-22T08:12:43;27.70;1.00
5134;DHT22;2585;48.696;10.066;2023-06-22T08:15:10;27.70;1.00
5134;DHT22;2585;48.696;10.066;2023-06-22T08:17:38;27.80;1.00
5134;DHT22;2585;48.696;10.066;2023-06-22T08:20:06;27.60;1.00
5134;DHT22;2585;48.696;10.066;2023-06-22T08:22:42;27.70;1.00
5134;DHT22;2585;48.696;10.066;2023-06-22T08:25:10;27.70;1.00
5134;DHT22;2585;48.696;10.066;2023-06-22T08:27:37;28.10;1.00
5134;DHT22;2585;48.696;10.066;2023-06-22T08:30:04;28.50;1.00
5134;DHT22;2585;48.696;10.066;2023-06-22T08:32:31;28.30;95.00
5134;DHT22;2585;48.696;10.066;2023-06-22T08:34:59;28.30;96.30
5134;DHT22;2585;48.696;10.066;2023-06-22T08:37:26;28.30;96.60
5134;DHT22;2585;48.696;10.066;2023-06-22T08:40:02;28.30;94.70
5134;DHT22;2585;48.696;10.066;2023-06-22T08:42:31;28.60;93.80
5134;DHT22;2585;48.696;10.066;2023-06-22T08:44:58;28.70;93.50
5134;DHT22;2585;48.696;10.066;2023-06-22T08:47:27;28.80;91.80
5134;DHT22;2585;48.696;10.066;2023-06-22T08:49:54;28.90;88.20
5134;DHT22;2585;48.696;10.066;2023-06-22T08:52:21;29.30;81.50
5134;DHT22;2585;48.696;10.066;2023-06-22T08:54:49;29.40;81.60
5134;DHT22;2585;48.696;10.066;2023-06-22T08:57:17;29.50;84.20
5134;DHT22;2585;48.696;10.066;2023-06-22T08:59:43;29.30;72.50
5134;DHT22;2585;48.696;10.066;2023-06-22T09:02:10;29.30;73.20
5134;DHT22;2585;48.696;10.066;2023-06-22T09:04:37;29.10;72.30
5134;DHT22;2585;48.696;10.066;2023-06-22T09:07:05;29.70;80.00
5134;DHT22;2585;48.696;10.066;2023-06-22T09:09:31;29.90;68.60
5134;DHT22;2585;48.696;10.066;2023-06-22T09:11:58;30.00;62.70
5134;DHT22;2585;48.696;10.066;2023-06-22T09:14:25;29.90;59.60
5134;DHT22;2585;48.696;10.066;2023-06-22T09:16:52;29.80;54.50
5134;DHT22;2585;48.696;10.066;2023-06-22T09:19:19;29.40;52.10
5134;DHT22;2585;48.696;10.066;2023-06-22T09:21:46;29.90;60.30
5134;DHT22;2585;48.696;10.066;2023-06-22T09:24:12;30.50;44.50
5134;DHT22;2585;48.696;10.066;2023-06-22T09:26:39;30.40;30.20
5134;DHT22;2585;48.696;10.066;2023-06-22T09:29:06;30.30;49.70
5134;DHT22;2585;48.696;10.066;2023-06-22T09:31:33;30.00;25.10
5134;DHT22;2585;48.696;10.066;2023-06-22T09:34:00;29.90;11.00
5134;DHT22;2585;48.696;10.066;2023-06-22T09:36:27;29.70;11.50
5134;DHT22;2585;48.696;10.066;2023-06-22T09:38:53;30.30;26.80
5134;DHT22;2585;48.696;10.066;2023-06-22T09:41:25;31.10;12.60
5134;DHT22;2585;48.696;10.066;2023-06-22T09:43:52;31.30;1.00
5134;DHT22;2585;48.696;10.066;2023-06-22T09:46:22;30.90;1.00
5134;DHT22;2585;48.696;10.066;2023-06-22T09:48:51;31.00;1.00
5134;DHT22;2585;48.696;10.066;2023-06-22T09:51:18;31.00;1.00
5134;DHT22;2585;48.696;10.066;2023-06-22T09:53:48;30.40;1.00
5134;DHT22;2585;48.696;10.066;2023-06-22T09:56:14;31.20;1.00
5134;DHT22;2585;48.696;10.066;2023-06-22T09:58:43;31.80;1.00
5134;DHT22;2585;48.696;10.066;2023-06-22T10:01:10;31.80;1.00
5134;DHT22;2585;48.696;10.066;2023-06-22T10:03:37;32.10;1.00
5134;DHT22;2585;48.696;10.066;2023-06-22T10:06:04;32.00;1.00
5134;DHT22;2585;48.696;10.066;2023-06-22T10:08:31;31.10;1.00
5134;DHT22;2585;48.696;10.066;2023-06-22T10:10:58;31.70;1.00
5134;DHT22;2585;48.696;10.066;2023-06-22T10:13:28;32.00;1.00
5134;DHT22;2585;48.696;10.066;2023-06-22T10:15:55;32.00;1.00
5134;DHT22;2585;48.696;10.066;2023-06-22T10:18:21;32.00;1.00
5134;DHT22;2585;48.696;10.066;2023-06-22T10:20:50;32.20;1.00
5134;DHT22;2585;48.696;10.066;2023-06-22T10:23:19;32.90;1.00
5134;DHT22;2585;48.696;10.066;2023-06-22T10:25:46;33.50;1.00
5134;DHT22;2585;48.696;10.066;2023-06-22T10:28:13;33.60;1.00
5134;DHT22;2585;48.696;10.066;2023-06-22T10:30:40;33.90;1.00
5134;DHT22;2585;48.696;10.066;2023-06-22T10:33:10;34.60;1.00
5134;DHT22;2585;48.696;10.066;2023-06-22T10:35:38;34.10;1.00
5134;DHT22;2585;48.696;10.066;2023-06-22T10:38:05;34.10;1.00
5134;DHT22;2585;48.696;10.066;2023-06-22T10:40:32;34.70;1.00
5134;DHT22;2585;48.696;10.066;2023-06-22T10:42:59;35.10;1.00
5134;DHT22;2585;48.696;10.066;2023-06-22T10:45:26;34.60;1.00
5134;DHT22;2585;48.696;10.066;2023-06-22T10:47:55;34.10;1.00
5134;DHT22;2585;48.696;10.066;2023-06-22T10:50:22;34.30;1.00
5134;DHT22;2585;48.696;10.066;2023-06-22T10:52:50;33.80;1.00
5134;DHT22;2585;48.696;10.066;2023-06-22T10:55:17;33.40;1.00
5134;DHT22;2585;48.696;10.066;2023-06-22T10:57:44;34.30;1.00
5134;DHT22;2585;48.696;10.066;2023-06-22T11:00:14;34.60;97.60
5134;DHT22;2585;48.696;10.066;2023-06-22T11:02:42;35.00;1.00
5134;DHT22;2585;48.696;10.066;2023-06-22T11:05:10;35.10;95.40
5134;DHT22;2585;48.696;10.066;2023-06-22T11:07:38;35.30;95.70
5134;DHT22;2585;48.696;10.066;2023-06-22T11:10:13;34.80;94.10
5134;DHT22;2585;48.696;10.066;2023-06-22T11:12:40;34.90;95.20
5134;DHT22;2585;48.696;10.066;2023-06-22T11:15:08;34.90;93.90
5134;DHT22;2585;48.696;10.066;2023-06-22T11:17:35;34.70;93.70
5134;DHT22;2585;48.696;10.066;2023-06-22T11:20:02;34.50;94.30
5134;DHT22;2585;48.696;10.066;2023-06-22T11:22:40;33.80;93.30
5134;DHT22;2585;48.696;10.066;2023-06-22T11:25:08;34.30;93.90
5134;DHT22;2585;48.696;10.066;2023-06-22T11:27:35;33.80;92.80
5134;DHT22;2585;48.696;10.066;2023-06-22T11:30:02;34.50;95.10
5134;DHT22;2585;48.696;10.066;2023-06-22T11:32:29;35.40;94.20
5134;DHT22;2585;48.696;10.066;2023-06-22T11:34:56;35.20;91.90
5134;DHT22;2585;48.696;10.066;2023-06-22T11:37:23;35.10;92.20
5134;DHT22;2585;48.696;10.066;2023-06-22T11:39:50;34.70;93.40
5134;DHT22;2585;48.696;10.066;2023-06-22T11:42:32;34.40;91.10
5134;DHT22;2585;48.696;10.066;2023-06-22T11:44:58;33.70;91.10
5134;DHT22;2585;48.696;10.066;2023-06-22T11:47:25;33.60;92.00
5134;DHT22;2585;48.696;10.066;2023-06-22T11:49:52;33.30;90.70
5134;DHT22;2585;48.696;10.066;2023-06-22T11:52:19;33.90;92.00
5134;DHT22;2585;48.696;10.066;2023-06-22T11:54:46;34.20;91.50
5134;DHT22;2585;48.696;10.066;2023-06-22T11:57:13;34.60;91.30
5134;DHT22;2585;48.696;10.066;2023-06-22T11:59:40;34.20;90.70
5134;DHT22;2585;48.696;10.066;2023-06-22T12:02:07;34.50;91.70
5134;DHT22;2585;48.696;10.066;2023-06-22T12:04:35;35.10;92.30
5134;DHT22;2585;48.696;10.066;2023-06-22T12:07:03;35.10;90.20
5134;DHT22;2585;48.696;10.066;2023-06-22T12:09:30;34.60;90.00
5134;DHT22;2585;48.696;10.066;2023-06-22T12:11:57;34.80;91.30
5134;DHT22;2585;48.696;10.066;2023-06-22T12:14:23;34.10;90.10
5134;DHT22;2585;48.696;10.066;2023-06-22T12:16:50;33.80;88.90
5134;DHT22;2585;48.696;10.066;2023-06-22T12:19:17;33.30;88.90
5134;DHT22;2585;48.696;10.066;2023-06-22T12:21:44;32.90;88.50
5134;DHT22;2585;48.696;10.066;2023-06-22T12:24:12;33.10;89.80
5134;DHT22;2585;48.696;10.066;2023-06-22T12:26:39;33.40;91.00
5134;DHT22;2585;48.696;10.066;2023-06-22T12:29:06;33.60;90.20
5134;DHT22;2585;48.696;10.066;2023-06-22T12:31:33;33.50;89.90
5134;DHT22;2585;48.696;10.066;2023-06-22T12:34:00;33.00;89.70
5134;DHT22;2585;48.696;10.066;2023-06-22T12:36:27;32.30;88.60
5134;DHT22;2585;48.696;10.066;2023-06-22T12:38:53;32.00;89.80
5134;DHT22;2585;48.696;10.066;2023-06-22T12:41:22;32.60;90.50
5134;DHT22;2585;48.696;10.066;2023-06-22T12:43:49;32.40;90.90
5134;DHT22;2585;48.696;10.066;2023-06-22T12:46:15;32.70;90.80
5134;DHT22;2585;48.696;10.066;2023-06-22T12:48:42;33.20;90.40
5134;DHT22;2585;48.696;10.066;2023-06-22T12:51:09;33.30;91.30
5134;DHT22;2585;48.696;10.066;2023-06-22T12:53:36;33.40;90.00
5134;DHT22;2585;48.696;10.066;2023-06-22T12:56:03;33.30;88.40
5134;DHT22;2585;48.696;10.066;2023-06-22T12:58:30;33.20;89.70
5134;DHT22;2585;48.696;10.066;2023-06-22T13:00:57;33.20;89.40
5134;DHT22;2585;48.696;10.066;2023-06-22T13:03:24;32.80;88.00
5134;DHT22;2585;48.696;10.066;2023-06-22T13:05:52;32.50;88.50
5134;DHT22;2585;48.696;10.066;2023-06-22T13:08:19;32.80;90.90
5134;DHT22;2585;48.696;10.066;2023-06-22T13:10:47;33.10;90.00
5134;DHT22;2585;48.696;10.066;2023-06-22T13:13:14;33.10;88.90
5134;DHT22;2585;48.696;10.066;2023-06-22T13:15:40;33.30;89.40
5134;DHT22;2585;48.696;10.066;2023-06-22T13:18:07;32.90;87.20
5134;DHT22;2585;48.696;10.066;2023-06-22T13:20:34;32.90;88.50
5134;DHT22;2585;48.696;10.066;2023-06-22T13:23:01;32.70;86.90
5134;DHT22;2585;48.696;10.066;2023-06-22T13:25:28;32.40;87.90
5134;DHT22;2585;48.696;10.066;2023-06-22T13:27:55;31.90;87.70
5134;DHT22;2585;48.696;10.066;2023-06-22T13:30:22;31.80;90.90
5134;DHT22;2585;48.696;10.066;2023-06-22T13:32:49;31.70;91.10
5134;DHT22;2585;48.696;10.066;2023-06-22T13:35:16;31.70;90.00
5134;DHT22;2585;48.696;10.066;2023-06-22T13:37:43;31.60;90.40
5134;DHT22;2585;48.696;10.066;2023-06-22T13:40:10;31.60;90.20
5134;DHT22;2585;48.696;10.066;2023-06-22T13:42:37;31.70;90.00
5134;DHT22;2585;48.696;10.066;2023-06-22T13:45:04;31.40;93.10
5134;DHT22;2585;48.696;10.066;2023-06-22T13:47:31;31.40;91.90
5134;DHT22;2585;48.696;10.066;2023-06-22T13:49:58;31.20;93.20
5134;DHT22;2585;48.696;10.066;2023-06-22T13:52:25;31.30;93.20
5134;DHT22;2585;48.696;10.066;2023-06-22T13:54:52;31.50;94.10
5134;DHT22;2585;48.696;10.066;2023-06-22T13:57:19;31.60;93.90
5134;DHT22;2585;48.696;10.066;2023-06-22T13:59:46;31.40;93.70
5134;DHT22;2585;48.696;10.066;2023-06-22T14:02:13;31.60;93.30
5134;DHT22;2585;48.696;10.066;2023-06-22T14:04:40;31.80;92.70
5134;DHT22;2585;48.696;10.066;2023-06-22T14:07:07;31.80;93.60
5134;DHT22;2585;48.696;10.066;2023-06-22T14:09:34;31.70;93.90
5134;DHT22;2585;48.696;10.066;2023-06-22T14:12:05;31.70;92.30
5134;DHT22;2585;48.696;10.066;2023-06-22T14:14:35;31.70;92.70
5134;DHT22;2585;48.696;10.066;2023-06-22T14:17:02;32.00;94.50
5134;DHT22;2585;48.696;10.066;2023-06-22T14:19:29;32.20;95.00
5134;DHT22;2585;48.696;10.066;2023-06-22T14:21:56;32.50;93.20
5134;DHT22;2585;48.696;10.066;2023-06-22T14:24:23;33.00;91.60
5134;DHT22;2585;48.696;10.066;2023-06-22T14:26:54;32.90;90.50
5134;DHT22;2585;48.696;10.066;2023-06-22T14:29:22;33.00;91.00
5134;DHT22;2585;48.696;10.066;2023-06-22T14:31:49;33.00;91.10
5134;DHT22;2585;48.696;10.066;2023-06-22T14:34:15;32.90;90.30
5134;DHT22;2585;48.696;10.066;2023-06-22T14:36:42;32.60;88.80
5134;DHT22;2585;48.696;10.066;2023-06-22T14:39:10;32.40;90.50
5134;DHT22;2585;48.696;10.066;2023-06-22T14:41:37;32.20;90.80
5134;DHT22;2585;48.696;10.066;2023-06-22T14:44:04;31.90;91.90
5134;DHT22;2585;48.696;10.066;2023-06-22T14:46:31;31.80;92.10
5134;DHT22;2585;48.696;10.066;2023-06-22T14:48:58;32.10;92.40
5134;DHT22;2585;48.696;10.066;2023-06-22T14:51:25;32.40;90.50
5134;DHT22;2585;48.696;10.066;2023-06-22T14:53:52;32.40;88.70
5134;DHT22;2585;48.696;10.066;2023-06-22T14:56:19;32.90;84.90
5134;DHT22;2585;48.696;10.066;2023-06-22T14:58:45;33.30;85.50
5134;DHT22;2585;48.696;10.066;2023-06-22T15:01:14;33.60;84.10
5134;DHT22;2585;48.696;10.066;2023-06-22T15:03:41;33.60;80.50
5134;DHT22;2585;48.696;10.066;2023-06-22T15:06:08;33.40;79.70
5134;DHT22;2585;48.696;10.066;2023-06-22T15:08:39;33.30;78.00
5134;DHT22;2585;48.696;10.066;2023-06-22T15:11:07;33.80;77.90
5134;DHT22;2585;48.696;10.066;2023-06-22T15:13:34;34.00;78.60
5134;DHT22;2585;48.696;10.066;2023-06-22T15:16:02;33.60;74.40
5134;DHT22;2585;48.696;10.066;2023-06-22T15:18:30;33.50;74.40
5134;DHT22;2585;48.696;10.066;2023-06-22T15:20:57;33.60;74.40
5134;DHT22;2585;48.696;10.066;2023-06-22T15:23:26;33.40;74.10
5134;DHT22;2585;48.696;10.066;2023-06-22T15:25:52;33.50;74.80
5134;DHT22;2585;48.696;10.066;2023-06-22T15:28:19;33.30;74.00
5134;DHT22;2585;48.696;10.066;2023-06-22T15:30:51;33.00;72.30
5134;DHT22;2585;48.696;10.066;2023-06-22T15:33:18;32.70;72.20
5134;DHT22;2585;48.696;10.066;2023-06-22T15:35:45;32.60;72.10
5134;DHT22;2585;48.696;10.066;2023-06-22T15:38:12;32.60;72.00
5134;DHT22;2585;48.696;10.066;2023-06-22T15:40:39;32.80;72.50
5134;DHT22;2585;48.696;10.066;2023-06-22T15:43:09;32.80;72.50
5134;DHT22;2585;48.696;10.066;2023-06-22T15:45:36;32.70;72.70
5134;DHT22;2585;48.696;10.066;2023-06-22T15:48:03;32.60;72.80
5134;DHT22;2585;48.696;10.066;2023-06-22T15:50:30;32.30;72.20
5134;DHT22;2585;48.696;10.066;2023-06-22T15:52:57;32.10;72.20
5134;DHT22;2585;48.696;10.066;2023-06-22T15:55:24;31.80;72.00